createdAt,value
2017-11-29T00:11:36.101Z,93.71
2017-11-29T00:16:36.886Z,93.68
2017-11-29T00:21:37.686Z,93.56
2017-11-29T00:26:38.479Z,93.33
2017-11-29T00:32:03.771Z,93.41
2017-11-29T00:37:04.574Z,93.33
2017-11-29T00:42:05.338Z,93.14
2017-11-29T00:47:26.832Z,93.23
2017-11-29T00:52:27.612Z,93.45
2017-11-29T00:57:28.439Z,93.51
2017-11-29T01:02:29.244Z,93.60
2017-11-29T01:07:30.015Z,94.03
2017-11-29T01:18:06.400Z,93.96
2017-11-29T01:23:07.206Z,94.26
2017-11-29T01:28:07.975Z,94.23
2017-11-29T01:33:08.750Z,94.43
2017-11-29T01:38:09.522Z,94.47
2017-11-29T01:43:10.886Z,94.45
2017-11-29T01:48:11.660Z,94.37
2017-11-29T01:53:12.436Z,94.37
2017-11-29T01:58:13.222Z,94.35
2017-11-29T02:03:13.999Z,93.92
2017-11-29T02:08:23.699Z,93.67
2017-11-29T02:13:24.474Z,93.50
2017-11-29T02:18:25.243Z,93.19
2017-11-29T02:23:32.124Z,93.46
2017-11-29T02:28:32.898Z,92.91
2017-11-29T02:33:33.689Z,93.04
2017-11-29T02:38:34.524Z,93.46
2017-11-29T02:43:57.399Z,93.73
2017-11-29T02:48:58.221Z,93.93
2017-11-29T02:53:59.015Z,93.89
2017-11-29T02:59:17.500Z,93.75
2017-11-29T03:04:18.338Z,93.71
2017-11-29T03:09:19.154Z,93.79
2017-11-29T03:14:19.942Z,94.09
2017-11-29T03:19:20.751Z,94.39
2017-11-29T03:24:21.543Z,94.70
2017-11-29T03:29:22.335Z,94.90
2017-11-29T03:34:23.104Z,94.59
2017-11-29T03:39:23.910Z,94.65
2017-11-29T03:44:24.654Z,94.27
2017-11-29T03:49:25.447Z,94.16
2017-11-29T03:54:26.207Z,94.40
2017-11-29T03:59:32.332Z,94.49
2017-11-29T04:04:33.116Z,93.48
2017-11-29T04:09:34.607Z,93.12
2017-11-29T04:14:35.914Z,93.67
2017-11-29T04:19:37.698Z,94.14
2017-11-29T04:24:38.470Z,93.98
2017-11-29T04:29:39.251Z,93.84
2017-11-29T04:34:40.027Z,93.49
2017-11-29T04:39:40.811Z,92.96
2017-11-29T04:44:41.574Z,92.92
2017-11-29T04:49:42.351Z,93.15
2017-11-29T04:54:43.144Z,92.79
2017-11-29T04:59:43.963Z,92.41
2017-11-29T05:04:44.738Z,92.73
2017-11-29T05:09:45.534Z,92.88
2017-11-29T05:14:46.323Z,92.55
2017-11-29T05:19:51.487Z,92.52
2017-11-29T05:24:52.284Z,92.41
2017-11-29T05:29:53.071Z,92.63
2017-11-29T05:34:57.667Z,91.58
2017-11-29T05:39:58.486Z,91.92
2017-11-29T05:44:59.326Z,92.51
2017-11-29T05:50:00.766Z,93.14
2017-11-29T05:55:01.609Z,92.84
2017-11-29T06:00:02.424Z,93.25
2017-11-29T06:05:03.220Z,93.37
2017-11-29T06:10:04.011Z,92.86
2017-11-29T06:15:04.787Z,93.06
2017-11-29T06:20:22.567Z,92.62
2017-11-29T06:25:23.347Z,93.41
2017-11-29T06:30:24.134Z,93.45
2017-11-29T06:35:33.018Z,93.27
2017-11-29T06:46:02.634Z,93.23
2017-11-29T06:51:10.712Z,93.19
2017-11-29T06:56:11.491Z,92.75
2017-11-29T07:01:33.376Z,93.07
2017-11-29T07:06:37.444Z,92.49
2017-11-29T07:11:38.215Z,92.21
2017-11-29T07:16:38.988Z,92.07
2017-11-29T07:21:39.772Z,91.71
2017-11-29T07:26:50.641Z,91.64
2017-11-29T07:31:51.407Z,89.92
2017-11-29T07:36:57.129Z,89.51
2017-11-29T07:41:57.927Z,89.25
2017-11-29T07:46:58.687Z,89.46
2017-11-29T07:51:59.455Z,88.60
2017-11-29T07:57:00.250Z,88.15
2017-11-29T08:02:15.113Z,88.27
2017-11-29T08:07:15.920Z,89.30
2017-11-29T08:12:33.948Z,89.01
2017-11-29T08:17:55.194Z,90.02
2017-11-29T08:28:24.840Z,89.38
2017-11-29T08:33:43.012Z,87.54
2017-11-29T08:39:03.791Z,86.92
2017-11-29T08:44:10.727Z,88.20
2017-11-29T08:49:11.515Z,86.35
2017-11-29T09:05:17.406Z,82.22
2017-11-29T09:15:59.580Z,82.07
2017-11-29T09:21:01.392Z,84.08
2017-11-29T09:26:16.579Z,84.78
2017-11-29T09:31:17.411Z,86.87
2017-11-29T09:36:18.204Z,85.40
2017-11-29T09:41:19.013Z,84.96
2017-11-29T09:46:41.929Z,85.79
2017-11-29T09:51:42.766Z,86.06
2017-11-29T09:56:43.576Z,86.15
2017-11-29T10:01:44.470Z,83.52
2017-11-29T10:28:38.331Z,82.63
2017-11-29T10:33:39.135Z,83.32
2017-11-29T10:38:52.881Z,84.64
2017-11-29T10:43:59.728Z,84.16
2017-11-29T11:11:03.810Z,80.21
2017-11-29T11:43:48.789Z,81.75
2017-11-29T12:05:13.320Z,81.43
2017-11-29T12:10:14.107Z,81.13
2017-11-29T12:15:14.900Z,80.67
2017-11-29T12:20:15.682Z,80.66
2017-11-29T12:25:27.476Z,78.66
2017-11-29T12:30:28.268Z,80.78
2017-11-29T12:35:32.952Z,78.47
2017-11-29T12:40:33.730Z,78.81
2017-11-29T12:45:37.719Z,80.19
2017-11-29T12:50:50.766Z,79.28
2017-11-29T13:06:55.471Z,78.90
2017-11-29T13:11:58.271Z,75.68
2017-11-29T13:39:12.736Z,78.36
2017-11-29T14:06:18.707Z,77.89
2017-11-29T14:22:18.498Z,79.93
2017-11-29T14:32:46.678Z,80.76
2017-11-29T14:37:47.465Z,82.91
2017-11-29T14:42:48.267Z,84.12
2017-11-29T14:47:52.711Z,84.11
2017-11-29T14:52:53.507Z,84.64
2017-11-29T14:57:54.286Z,85.73
2017-11-29T15:02:55.095Z,85.23
2017-11-29T15:07:59.276Z,85.85
2017-11-29T15:28:52.806Z,85.89
2017-11-29T15:33:53.618Z,85.67
2017-11-29T15:38:54.414Z,85.60
2017-11-29T15:43:55.217Z,86.52
2017-11-29T15:48:56.010Z,87.82
2017-11-29T15:53:56.798Z,88.71
2017-11-29T15:59:01.298Z,89.66
2017-11-29T16:04:02.071Z,90.40
2017-11-29T16:09:02.929Z,91.07
2017-11-29T16:14:03.724Z,91.39
2017-11-29T16:19:04.503Z,91.75
2017-11-29T16:24:05.306Z,91.84
2017-11-29T16:29:06.083Z,92.10
2017-11-29T16:34:06.889Z,91.78
2017-11-29T16:39:07.693Z,92.09
2017-11-29T16:44:08.475Z,91.91
2017-11-29T16:49:09.248Z,92.35
2017-11-29T16:54:10.021Z,92.05
2017-11-29T16:59:10.839Z,91.91
2017-11-29T17:04:11.645Z,92.64
2017-11-29T17:09:12.415Z,92.57
2017-11-29T17:14:13.190Z,92.87
2017-11-29T17:19:13.989Z,93.29
2017-11-29T17:24:14.774Z,94.06
2017-11-29T17:29:15.578Z,94.28
2017-11-29T17:34:16.371Z,94.60
2017-11-29T17:39:17.134Z,94.99
2017-11-29T17:44:21.651Z,95.38
2017-11-29T17:49:22.444Z,95.34
2017-11-29T17:54:23.249Z,95.40
2017-11-29T17:59:24.046Z,95.48
2017-11-29T18:04:24.844Z,95.16
2017-11-29T18:09:25.632Z,95.13
2017-11-29T18:14:26.436Z,95.32
2017-11-29T18:19:27.210Z,95.35
2017-11-29T18:24:28.039Z,95.43
2017-11-29T18:29:28.860Z,95.67
2017-11-29T18:34:29.738Z,95.92
2017-11-29T18:39:30.575Z,96.20
2017-11-29T18:44:31.368Z,96.28
2017-11-29T18:49:32.199Z,96.08
2017-11-29T18:54:33.064Z,95.84
2017-11-29T18:59:34.023Z,95.71
2017-11-29T19:04:35.707Z,95.37
2017-11-29T19:09:37.188Z,95.30
2017-11-29T19:14:38.244Z,95.36
2017-11-29T19:19:39.258Z,95.42
2017-11-29T19:24:40.287Z,95.41
2017-11-29T19:29:41.414Z,95.47
2017-11-29T19:34:42.447Z,95.47
2017-11-29T19:39:47.297Z,95.47
2017-11-29T19:44:48.167Z,95.34
2017-11-29T19:49:48.976Z,95.37
2017-11-29T19:54:49.796Z,95.43
2017-11-29T19:59:50.610Z,95.35
2017-11-29T20:04:51.431Z,95.45
2017-11-29T20:09:52.249Z,95.52
2017-11-29T20:14:53.066Z,95.52
2017-11-29T20:19:53.881Z,95.47
2017-11-29T20:24:54.691Z,95.52
2017-11-29T20:29:55.520Z,95.36
2017-11-29T20:34:56.326Z,95.20
2017-11-29T20:40:04.723Z,95.44
2017-11-29T20:45:05.772Z,95.65
2017-11-29T20:50:06.587Z,95.75
2017-11-29T20:55:07.362Z,95.92
2017-11-29T21:00:08.156Z,95.92
2017-11-29T21:05:08.981Z,95.59
2017-11-29T21:10:09.763Z,95.10
2017-11-29T21:15:10.563Z,95.00
2017-11-29T21:20:11.322Z,94.82
2017-11-29T21:25:12.110Z,94.88
2017-11-29T21:30:12.900Z,94.92
2017-11-29T21:35:13.760Z,94.42
2017-11-29T21:40:14.563Z,93.90
2017-11-29T21:45:15.335Z,93.51
2017-11-29T21:50:16.106Z,93.12
2017-11-29T21:55:16.923Z,92.11
2017-11-29T22:00:17.769Z,91.88
2017-11-29T22:05:18.589Z,91.34
2017-11-29T22:10:19.364Z,91.55
2017-11-29T22:15:20.146Z,91.50
2017-11-29T22:20:20.915Z,90.92
2017-11-29T22:25:21.790Z,91.39
2017-11-29T22:30:22.586Z,91.43
2017-11-29T22:35:23.358Z,91.71
2017-11-29T22:40:24.126Z,91.75
2017-11-29T22:45:25.025Z,92.59
2017-11-29T22:50:27.806Z,93.13
2017-11-29T22:55:28.587Z,93.38
2017-11-29T23:00:29.380Z,93.54
2017-11-29T23:05:30.171Z,93.63
2017-11-29T23:10:34.415Z,93.62
2017-11-29T23:15:38.625Z,93.50
2017-11-29T23:20:39.408Z,93.66
2017-11-29T23:25:40.226Z,93.24
2017-11-29T23:30:40.979Z,93.08
2017-11-29T23:35:41.790Z,93.29
2017-11-29T23:40:42.583Z,92.66
2017-11-29T23:45:43.375Z,92.71
2017-11-29T23:50:44.168Z,92.98
2017-11-29T23:55:45.459Z,92.45
